sensor_id;sensor_type;location;lat;lon;timestamp;pressure;altitude;pressure_sealevel;temperature
50206;BMP280;36098;48.390;10.856;2023-02-18T00:00:56;96914.56;;;22.77
50206;BMP280;36098;48.390;10.856;2023-02-18T00:03:25;96915.31;;;22.73
50206;BMP280;36098;48.390;10.856;2023-02-18T00:05:51;96915.81;;;22.70
50206;BMP280;36098;48.390;10.856;2023-02-18T00:08:16;96908.22;;;22.73
50206;BMP280;36098;48.390;10.856;2023-02-18T00:10:41;96907.91;;;22.70
50206;BMP280;36098;48.390;10.856;2023-02-18T00:13:06;96905.28;;;22.70
50206;BMP280;36098;48.390;10.856;2023-02-18T00:15:33;96903.63;;;22.64
50206;BMP280;36098;48.390;10.856;2023-02-18T00:17:59;96898.38;;;22.64
50206;BMP280;36098;48.390;10.856;2023-02-18T00:20:24;96897.28;;;22.60
50206;BMP280;36098;48.390;10.856;2023-02-18T00:22:49;96891.53;;;22.63
50206;BMP280;36098;48.390;10.856;2023-02-18T00:25:14;96886.75;;;22.60
50206;BMP280;36098;48.390;10.856;2023-02-18T00:27:39;96899.41;;;22.63
50206;BMP280;36098;48.390;10.856;2023-02-18T00:30:05;96892.03;;;22.60
50206;BMP280;36098;48.390;10.856;2023-02-18T00:32:30;96902.47;;;22.55
50206;BMP280;36098;48.390;10.856;2023-02-18T00:34:55;96898.78;;;22.56
50206;BMP280;36098;48.390;10.856;2023-02-18T00:37:20;96900.34;;;22.52
50206;BMP280;36098;48.390;10.856;2023-02-18T00:39:46;96901.97;;;22.58
50206;BMP280;36098;48.390;10.856;2023-02-18T00:42:11;96896.97;;;22.56
50206;BMP280;36098;48.390;10.856;2023-02-18T00:44:36;96902.25;;;22.56
50206;BMP280;36098;48.390;10.856;2023-02-18T00:47:02;96896.66;;;22.53
50206;BMP280;36098;48.390;10.856;2023-02-18T00:49:27;96894.56;;;22.55
50206;BMP280;36098;48.390;10.856;2023-02-18T00:51:52;96896.16;;;22.56
50206;BMP280;36098;48.390;10.856;2023-02-18T00:54:17;96901.94;;;22.53
50206;BMP280;36098;48.390;10.856;2023-02-18T00:56:42;96893.47;;;22.51
50206;BMP280;36098;48.390;10.856;2023-02-18T00:59:07;96889.81;;;22.52
50206;BMP280;36098;48.390;10.856;2023-02-18T01:01:33;96895.56;;;22.49
50206;BMP280;36098;48.390;10.856;2023-02-18T01:03:59;96898.75;;;22.51
50206;BMP280;36098;48.390;10.856;2023-02-18T01:06:24;96896.38;;;22.49
50206;BMP280;36098;48.390;10.856;2023-02-18T01:08:49;96891.28;;;22.43
50206;BMP280;36098;48.390;10.856;2023-02-18T01:11:14;96893.16;;;22.47
50206;BMP280;36098;48.390;10.856;2023-02-18T01:13:40;96884.81;;;22.50
50206;BMP280;36098;48.390;10.856;2023-02-18T01:16:06;96889.25;;;22.50
50206;BMP280;36098;48.390;10.856;2023-02-18T01:18:31;96890.63;;;22.52
50206;BMP280;36098;48.390;10.856;2023-02-18T01:20:56;96887.91;;;22.47
50206;BMP280;36098;48.390;10.856;2023-02-18T01:23:22;96881.06;;;22.46
50206;BMP280;36098;48.390;10.856;2023-02-18T01:25:47;96885.47;;;22.41
50206;BMP280;36098;48.390;10.856;2023-02-18T01:28:13;96876.06;;;22.45
50206;BMP280;36098;48.390;10.856;2023-02-18T01:30:38;96883.69;;;22.46
50206;BMP280;36098;48.390;10.856;2023-02-18T01:33:03;96880.75;;;22.43
50206;BMP280;36098;48.390;10.856;2023-02-18T01:35:29;96878.13;;;22.43
50206;BMP280;36098;48.390;10.856;2023-02-18T01:37:54;96880.75;;;22.43
50206;BMP280;36098;48.390;10.856;2023-02-18T01:40:20;96879.69;;;22.39
50206;BMP280;36098;48.390;10.856;2023-02-18T01:42:47;96877.81;;;22.39
50206;BMP280;36098;48.390;10.856;2023-02-18T01:47:56;96876.94;;;22.34
50206;BMP280;36098;48.390;10.856;2023-02-18T01:50:21;96876.94;;;22.34
50206;BMP280;36098;48.390;10.856;2023-02-18T01:52:46;96877.59;;;22.41
50206;BMP280;36098;48.390;10.856;2023-02-18T01:55:12;96868.34;;;22.38
50206;BMP280;36098;48.390;10.856;2023-02-18T01:57:37;96882.19;;;22.34
50206;BMP280;36098;48.390;10.856;2023-02-18T02:02:28;96872.72;;;22.33
50206;BMP280;36098;48.390;10.856;2023-02-18T02:04:53;96867.22;;;22.34
50206;BMP280;36098;48.390;10.856;2023-02-18T02:07:19;96865.84;;;22.32
50206;BMP280;36098;48.390;10.856;2023-02-18T02:09:45;96867.44;;;22.33
50206;BMP280;36098;48.390;10.856;2023-02-18T02:14:46;96852.19;;;22.35
50206;BMP280;36098;48.390;10.856;2023-02-18T02:22:39;96844.81;;;22.32
50206;BMP280;36098;48.390;10.856;2023-02-18T02:25:18;96842.97;;;22.32
50206;BMP280;36098;48.390;10.856;2023-02-18T02:35:33;96840.28;;;22.27
50206;BMP280;36098;48.390;10.856;2023-02-18T02:38:01;96844.81;;;22.32
50206;BMP280;36098;48.390;10.856;2023-02-18T02:43:19;96842.00;;;22.17
50206;BMP280;36098;48.390;10.856;2023-02-18T02:48:35;96818.31;;;22.17
50206;BMP280;36098;48.390;10.856;2023-02-18T02:53:45;96819.44;;;22.21
50206;BMP280;36098;48.390;10.856;2023-02-18T02:56:14;96819.44;;;22.21
50206;BMP280;36098;48.390;10.856;2023-02-18T02:58:40;96816.84;;;22.26
50206;BMP280;36098;48.390;10.856;2023-02-18T03:01:24;96803.16;;;22.24
50206;BMP280;36098;48.390;10.856;2023-02-18T03:11:17;96812.81;;;22.18
50206;BMP280;36098;48.390;10.856;2023-02-18T03:14:04;96805.72;;;22.19
50206;BMP280;36098;48.390;10.856;2023-02-18T03:18:58;96798.84;;;22.18
50206;BMP280;36098;48.390;10.856;2023-02-18T03:23:57;96792.00;;;22.17
50206;BMP280;36098;48.390;10.856;2023-02-18T03:26:23;96801.44;;;22.13
50206;BMP280;36098;48.390;10.856;2023-02-18T03:28:49;96811.72;;;22.14
50206;BMP280;36098;48.390;10.856;2023-02-18T03:31:15;96814.03;;;22.11
50206;BMP280;36098;48.390;10.856;2023-02-18T03:33:43;96814.03;;;22.11
50206;BMP280;36098;48.390;10.856;2023-02-18T03:36:10;96814.59;;;22.13
50206;BMP280;36098;48.390;10.856;2023-02-18T03:38:37;96822.00;;;22.16
50206;BMP280;36098;48.390;10.856;2023-02-18T03:41:04;96817.75;;;22.15
50206;BMP280;36098;48.390;10.856;2023-02-18T03:43:29;96808.78;;;22.11
50206;BMP280;36098;48.390;10.856;2023-02-18T03:45:54;96796.72;;;22.15
50206;BMP280;36098;48.390;10.856;2023-02-18T03:48:20;96801.50;;;22.18
50206;BMP280;36098;48.390;10.856;2023-02-18T03:50:45;96801.25;;;22.19
50206;BMP280;36098;48.390;10.856;2023-02-18T03:53:10;96797.53;;;22.15
50206;BMP280;36098;48.390;10.856;2023-02-18T03:55:36;96804.06;;;22.13
50206;BMP280;36098;48.390;10.856;2023-02-18T03:58:01;96804.63;;;22.15
50206;BMP280;36098;48.390;10.856;2023-02-18T04:00:26;96792.81;;;22.17
50206;BMP280;36098;48.390;10.856;2023-02-18T04:02:51;96796.69;;;22.10
50206;BMP280;36098;48.390;10.856;2023-02-18T04:05:16;96799.81;;;22.07
50206;BMP280;36098;48.390;10.856;2023-02-18T04:07:41;96808.41;;;22.02
50206;BMP280;36098;48.390;10.856;2023-02-18T04:10:07;96805.78;;;22.02
50206;BMP280;36098;48.390;10.856;2023-02-18T04:12:32;96806.88;;;22.06
50206;BMP280;36098;48.390;10.856;2023-02-18T04:14:57;96811.91;;;22.08
50206;BMP280;36098;48.390;10.856;2023-02-18T04:17:23;96816.44;;;22.12
50206;BMP280;36098;48.390;10.856;2023-02-18T04:19:48;96825.56;;;22.05
50206;BMP280;36098;48.390;10.856;2023-02-18T04:22:13;96827.16;;;22.06
50206;BMP280;36098;48.390;10.856;2023-02-18T04:24:38;96817.91;;;22.03
50206;BMP280;36098;48.390;10.856;2023-02-18T04:27:03;96813.94;;;22.01
50206;BMP280;36098;48.390;10.856;2023-02-18T04:29:28;96814.22;;;22.04
50206;BMP280;36098;48.390;10.856;2023-02-18T04:31:54;96820.84;;;22.07
50206;BMP280;36098;48.390;10.856;2023-02-18T04:34:19;96828.41;;;22.03
50206;BMP280;36098;48.390;10.856;2023-02-18T04:36:44;96820.47;;;21.98
50206;BMP280;36098;48.390;10.856;2023-02-18T04:39:09;96818.38;;;22.00
50206;BMP280;36098;48.390;10.856;2023-02-18T04:41:34;96818.56;;;21.94
50206;BMP280;36098;48.390;10.856;2023-02-18T04:43:59;96815.41;;;21.92
50206;BMP280;36098;48.390;10.856;2023-02-18T04:46:25;96813.13;;;22.00
50206;BMP280;36098;48.390;10.856;2023-02-18T04:48:50;96808.59;;;21.96
50206;BMP280;36098;48.390;10.856;2023-02-18T04:51:15;96819.13;;;21.96
50206;BMP280;36098;48.390;10.856;2023-02-18T04:53:41;96812.34;;;22.00
50206;BMP280;36098;48.390;10.856;2023-02-18T04:56:06;96825.25;;;22.01
50206;BMP280;36098;48.390;10.856;2023-02-18T04:58:31;96821.03;;;22.00
50206;BMP280;36098;48.390;10.856;2023-02-18T05:01:00;96826.06;;;22.02
50206;BMP280;36098;48.390;10.856;2023-02-18T05:03:25;96826.59;;;22.04
50206;BMP280;36098;48.390;10.856;2023-02-18T05:05:50;96812.34;;;22.00
50206;BMP280;36098;48.390;10.856;2023-02-18T05:08:16;96804.94;;;21.97
50206;BMP280;36098;48.390;10.856;2023-02-18T05:10:41;96805.41;;;21.94
50206;BMP280;36098;48.390;10.856;2023-02-18T05:13:06;96805.47;;;21.99
50206;BMP280;36098;48.390;10.856;2023-02-18T05:15:31;96803.59;;;21.94
50206;BMP280;36098;48.390;10.856;2023-02-18T05:17:56;96800.44;;;21.92
50206;BMP280;36098;48.390;10.856;2023-02-18T05:20:22;96810.69;;;21.94
50206;BMP280;36098;48.390;10.856;2023-02-18T05:22:47;96794.34;;;21.92
50206;BMP280;36098;48.390;10.856;2023-02-18T05:25:12;96796.19;;;21.91
50206;BMP280;36098;48.390;10.856;2023-02-18T05:27:37;96805.38;;;21.89
50206;BMP280;36098;48.390;10.856;2023-02-18T05:30:02;96803.06;;;21.92
50206;BMP280;36098;48.390;10.856;2023-02-18T05:32:28;96800.72;;;21.96
50206;BMP280;36098;48.390;10.856;2023-02-18T05:34:53;96800.16;;;21.94
50206;BMP280;36098;48.390;10.856;2023-02-18T05:37:18;96794.84;;;21.89
50206;BMP280;36098;48.390;10.856;2023-02-18T05:39:44;96794.31;;;21.87
50206;BMP280;36098;48.390;10.856;2023-02-18T05:42:09;96799.63;;;21.92
50206;BMP280;36098;48.390;10.856;2023-02-18T05:44:34;96808.84;;;21.94
50206;BMP280;36098;48.390;10.856;2023-02-18T05:47:01;96811.72;;;21.93
50206;BMP280;36098;48.390;10.856;2023-02-18T05:49:27;96821.63;;;21.86
50206;BMP280;36098;48.390;10.856;2023-02-18T05:51:52;96819.56;;;21.88
50206;BMP280;36098;48.390;10.856;2023-02-18T05:54:17;96822.19;;;21.88
50206;BMP280;36098;48.390;10.856;2023-02-18T05:56:42;96830.00;;;21.83
50206;BMP280;36098;48.390;10.856;2023-02-18T05:59:08;96825.31;;;21.85
50206;BMP280;36098;48.390;10.856;2023-02-18T06:01:33;96828.97;;;21.84
50206;BMP280;36098;48.390;10.856;2023-02-18T06:03:58;96832.94;;;21.86
50206;BMP280;36098;48.390;10.856;2023-02-18T06:06:23;96839.19;;;21.80
50206;BMP280;36098;48.390;10.856;2023-02-18T06:08:48;96845.41;;;21.41
50206;BMP280;36098;48.390;10.856;2023-02-18T06:11:14;96830.16;;;21.22
50206;BMP280;36098;48.390;10.856;2023-02-18T06:13:39;96840.09;;;21.20
50206;BMP280;36098;48.390;10.856;2023-02-18T06:16:04;96837.06;;;21.28
50206;BMP280;36098;48.390;10.856;2023-02-18T06:18:29;96832.78;;;21.38
50206;BMP280;36098;48.390;10.856;2023-02-18T06:20:55;96834.25;;;21.51
50206;BMP280;36098;48.390;10.856;2023-02-18T06:23:20;96840.69;;;21.60
50206;BMP280;36098;48.390;10.856;2023-02-18T06:25:47;96831.41;;;21.69
50206;BMP280;36098;48.390;10.856;2023-02-18T06:28:12;96835.19;;;21.78
50206;BMP280;36098;48.390;10.856;2023-02-18T06:30:37;96839.00;;;21.87
50206;BMP280;36098;48.390;10.856;2023-02-18T06:33:02;96834.13;;;21.95
50206;BMP280;36098;48.390;10.856;2023-02-18T06:35:28;96841.34;;;22.05
50206;BMP280;36098;48.390;10.856;2023-02-18T06:37:53;96840.13;;;22.12
50206;BMP280;36098;48.390;10.856;2023-02-18T06:40:18;96838.31;;;22.18
50206;BMP280;36098;48.390;10.856;2023-02-18T06:42:44;96832.00;;;22.19
50206;BMP280;36098;48.390;10.856;2023-02-18T06:45:09;96830.44;;;22.18
50206;BMP280;36098;48.390;10.856;2023-02-18T06:47:34;96828.84;;;22.17
50206;BMP280;36098;48.390;10.856;2023-02-18T06:49:59;96829.88;;;22.16
50206;BMP280;36098;48.390;10.856;2023-02-18T06:52:25;96818.81;;;22.14
50206;BMP280;36098;48.390;10.856;2023-02-18T06:54:50;96818.56;;;22.15
50206;BMP280;36098;48.390;10.856;2023-02-18T06:57:15;96814.72;;;22.23
50206;BMP280;36098;48.390;10.856;2023-02-18T06:59:40;96816.84;;;22.26
50206;BMP280;36098;48.390;10.856;2023-02-18T07:02:06;96822.16;;;22.31
50206;BMP280;36098;48.390;10.856;2023-02-18T07:04:31;96815.69;;;22.38
50206;BMP280;36098;48.390;10.856;2023-02-18T07:06:56;96818.38;;;22.43
50206;BMP280;36098;48.390;10.856;2023-02-18T07:09:21;96824.25;;;22.50
50206;BMP280;36098;48.390;10.856;2023-02-18T07:11:47;96820.03;;;22.49
50206;BMP280;36098;48.390;10.856;2023-02-18T07:14:12;96813.97;;;22.49
50206;BMP280;36098;48.390;10.856;2023-02-18T07:16:37;96819.47;;;22.47
50206;BMP280;36098;48.390;10.856;2023-02-18T07:19:02;96814.72;;;22.44
50206;BMP280;36098;48.390;10.856;2023-02-18T07:21:27;96811.84;;;22.46
50206;BMP280;36098;48.390;10.856;2023-02-18T07:23:52;96817.88;;;22.46
50206;BMP280;36098;48.390;10.856;2023-02-18T07:26:18;96821.38;;;22.52
50206;BMP280;36098;48.390;10.856;2023-02-18T07:28:43;96834.56;;;22.57
50206;BMP280;36098;48.390;10.856;2023-02-18T07:31:08;96826.25;;;22.65
50206;BMP280;36098;48.390;10.856;2023-02-18T07:33:33;96822.06;;;22.69
50206;BMP280;36098;48.390;10.856;2023-02-18T07:35:59;96823.16;;;22.73
50206;BMP280;36098;48.390;10.856;2023-02-18T07:38:25;96819.78;;;22.77
50206;BMP280;36098;48.390;10.856;2023-02-18T07:40:50;96818.44;;;22.75
50206;BMP280;36098;48.390;10.856;2023-02-18T07:43:16;96815.25;;;22.73
50206;BMP280;36098;48.390;10.856;2023-02-18T07:45:41;96818.69;;;22.73
50206;BMP280;36098;48.390;10.856;2023-02-18T07:48:06;96800.25;;;22.73
50206;BMP280;36098;48.390;10.856;2023-02-18T07:50:32;96802.09;;;22.73
50206;BMP280;36098;48.390;10.856;2023-02-18T07:53:03;96806.56;;;22.72
50206;BMP280;36098;48.390;10.856;2023-02-18T07:55:29;96803.16;;;22.77
50206;BMP280;36098;48.390;10.856;2023-02-18T07:58:13;96802.44;;;22.81
50206;BMP280;36098;48.390;10.856;2023-02-18T08:00:38;96795.59;;;22.85
50206;BMP280;36098;48.390;10.856;2023-02-18T08:03:03;96786.47;;;22.93
50206;BMP280;36098;48.390;10.856;2023-02-18T08:05:29;96789.16;;;22.98
50206;BMP280;36098;48.390;10.856;2023-02-18T08:07:54;96784.97;;;23.02
50206;BMP280;36098;48.390;10.856;2023-02-18T08:10:20;96790.25;;;23.02
50206;BMP280;36098;48.390;10.856;2023-02-18T08:12:45;96778.34;;;22.99
50206;BMP280;36098;48.390;10.856;2023-02-18T08:15:11;96775.41;;;22.96
50206;BMP280;36098;48.390;10.856;2023-02-18T08:17:36;96765.69;;;22.96
50206;BMP280;36098;48.390;10.856;2023-02-18T08:20:02;96767.78;;;22.94
50206;BMP280;36098;48.390;10.856;2023-02-18T08:22:27;96754.84;;;22.93
50206;BMP280;36098;48.390;10.856;2023-02-18T08:24:55;96756.19;;;22.95
50206;BMP280;36098;48.390;10.856;2023-02-18T08:27:21;96766.69;;;22.90
50206;BMP280;36098;48.390;10.856;2023-02-18T08:29:46;96775.88;;;22.88
50206;BMP280;36098;48.390;10.856;2023-02-18T08:32:11;96761.66;;;22.84
50206;BMP280;36098;48.390;10.856;2023-02-18T08:34:37;96758.19;;;22.83
50206;BMP280;36098;48.390;10.856;2023-02-18T08:37:02;96765.06;;;22.84
50206;BMP280;36098;48.390;10.856;2023-02-18T08:39:27;96765.81;;;22.80
50206;BMP280;36098;48.390;10.856;2023-02-18T08:41:52;96760.81;;;22.78
50206;BMP280;36098;48.390;10.856;2023-02-18T08:44:18;96766.06;;;22.78
50206;BMP280;36098;48.390;10.856;2023-02-18T08:46:43;96761.09;;;22.82
50206;BMP280;36098;48.390;10.856;2023-02-18T08:49:08;96759.06;;;22.94
50206;BMP280;36098;48.390;10.856;2023-02-18T08:51:33;96757.44;;;22.83
50206;BMP280;36098;48.390;10.856;2023-02-18T08:53:59;96749.59;;;22.93
50206;BMP280;36098;48.390;10.856;2023-02-18T08:56:24;96751.34;;;22.82
50206;BMP280;36098;48.390;10.856;2023-02-18T08:58:49;96755.78;;;22.77
50206;BMP280;36098;48.390;10.856;2023-02-18T09:01:14;96759.97;;;22.73
50206;BMP280;36098;48.390;10.856;2023-02-18T09:03:40;96753.94;;;22.77
50206;BMP280;36098;48.390;10.856;2023-02-18T09:06:05;96751.34;;;22.82
50206;BMP280;36098;48.390;10.856;2023-02-18T09:08:30;96748.72;;;22.82
50206;BMP280;36098;48.390;10.856;2023-02-18T09:10:56;96746.38;;;22.86
50206;BMP280;36098;48.390;10.856;2023-02-18T09:13:22;96739.84;;;22.88
50206;BMP280;36098;48.390;10.856;2023-02-18T09:15:54;96731.16;;;22.93
50206;BMP280;36098;48.390;10.856;2023-02-18T09:18:20;96723.53;;;22.91
50206;BMP280;36098;48.390;10.856;2023-02-18T09:20:45;96723.72;;;22.85
50206;BMP280;36098;48.390;10.856;2023-02-18T09:23:10;96726.06;;;22.81
50206;BMP280;36098;48.390;10.856;2023-02-18T09:25:38;96710.84;;;22.88
50206;BMP280;36098;48.390;10.856;2023-02-18T09:28:03;96712.19;;;22.96
50206;BMP280;36098;48.390;10.856;2023-02-18T09:30:28;96706.41;;;22.94
50206;BMP280;36098;48.390;10.856;2023-02-18T09:32:53;96710.63;;;22.95
50206;BMP280;36098;48.390;10.856;2023-02-18T09:35:18;96702.47;;;22.96
50206;BMP280;36098;48.390;10.856;2023-02-18T09:37:44;96716.19;;;22.98
50206;BMP280;36098;48.390;10.856;2023-02-18T09:40:11;96714.59;;;22.97
50206;BMP280;36098;48.390;10.856;2023-02-18T09:42:45;96711.97;;;22.97
50206;BMP280;36098;48.390;10.856;2023-02-18T09:45:10;96697.22;;;22.96
50206;BMP280;36098;48.390;10.856;2023-02-18T09:47:38;96698.56;;;23.04
50206;BMP280;36098;48.390;10.856;2023-02-18T09:50:10;96691.81;;;23.13
50206;BMP280;36098;48.390;10.856;2023-02-18T09:52:37;96697.53;;;23.05
50206;BMP280;36098;48.390;10.856;2023-02-18T09:55:37;96696.56;;;23.16
50206;BMP280;36098;48.390;10.856;2023-02-18T09:57:56;96691.97;;;23.47
50206;BMP280;36098;48.390;10.856;2023-02-18T10:00:24;96690.38;;;23.41
50206;BMP280;36098;48.390;10.856;2023-02-18T10:02:54;96688.19;;;23.28
50206;BMP280;36098;48.390;10.856;2023-02-18T10:05:21;96684.97;;;23.17
50206;BMP280;36098;48.390;10.856;2023-02-18T10:07:47;96673.44;;;23.23
50206;BMP280;36098;48.390;10.856;2023-02-18T10:12:57;96677.16;;;23.31
50206;BMP280;36098;48.390;10.856;2023-02-18T10:15:23;96660.13;;;23.59
50206;BMP280;36098;48.390;10.856;2023-02-18T10:17:52;96660.66;;;23.61
50206;BMP280;36098;48.390;10.856;2023-02-18T10:20:19;96663.28;;;23.51
50206;BMP280;36098;48.390;10.856;2023-02-18T10:22:47;96668.56;;;23.61
50206;BMP280;36098;48.390;10.856;2023-02-18T10:25:16;96659.59;;;23.52
50206;BMP280;36098;48.390;10.856;2023-02-18T10:27:42;96648.00;;;23.63
50206;BMP280;36098;48.390;10.856;2023-02-18T10:32:42;96654.09;;;23.68
50206;BMP280;36098;48.390;10.856;2023-02-18T10:35:19;96650.69;;;23.73
50206;BMP280;36098;48.390;10.856;2023-02-18T10:40:21;96637.50;;;23.78
50206;BMP280;36098;48.390;10.856;2023-02-18T10:47:39;96610.84;;;23.74
50206;BMP280;36098;48.390;10.856;2023-02-18T10:50:11;96613.25;;;23.76
50206;BMP280;36098;48.390;10.856;2023-02-18T10:52:38;96601.31;;;23.48
50206;BMP280;36098;48.390;10.856;2023-02-18T10:55:06;96592.88;;;23.51
50206;BMP280;36098;48.390;10.856;2023-02-18T10:57:33;96606.03;;;23.41
50206;BMP280;36098;48.390;10.856;2023-02-18T10:59:59;96609.16;;;23.28
50206;BMP280;36098;48.390;10.856;2023-02-18T11:02:27;96606.50;;;23.28
50206;BMP280;36098;48.390;10.856;2023-02-18T11:04:54;96615.53;;;23.42
50206;BMP280;36098;48.390;10.856;2023-02-18T11:07:21;96610.50;;;23.36
50206;BMP280;36098;48.390;10.856;2023-02-18T11:14:39;96614.75;;;23.47
50206;BMP280;36098;48.390;10.856;2023-02-18T11:17:08;96609.50;;;23.47
50206;BMP280;36098;48.390;10.856;2023-02-18T11:19:37;96617.59;;;23.30
50206;BMP280;36098;48.390;10.856;2023-02-18T11:22:07;96621.34;;;23.54
50206;BMP280;36098;48.390;10.856;2023-02-18T11:24:33;96610.50;;;23.41
50206;BMP280;36098;48.390;10.856;2023-02-18T11:27:02;96605.06;;;23.72
50206;BMP280;36098;48.390;10.856;2023-02-18T11:29:32;96591.09;;;23.67
50206;BMP280;36098;48.390;10.856;2023-02-18T11:31:58;96603.47;;;23.71
50206;BMP280;36098;48.390;10.856;2023-02-18T11:34:28;96586.16;;;24.05
50206;BMP280;36098;48.390;10.856;2023-02-18T11:36:54;96592.75;;;23.88
50206;BMP280;36098;48.390;10.856;2023-02-18T11:39:23;96587.38;;;23.63
50206;BMP280;36098;48.390;10.856;2023-02-18T11:46:58;96584.16;;;23.41
50206;BMP280;36098;48.390;10.856;2023-02-18T11:49:24;96577.88;;;23.57
50206;BMP280;36098;48.390;10.856;2023-02-18T11:51:50;96587.31;;;23.43
50206;BMP280;36098;48.390;10.856;2023-02-18T11:56:53;96568.47;;;23.10
50206;BMP280;36098;48.390;10.856;2023-02-18T11:59:19;96575.34;;;23.16
50206;BMP280;36098;48.390;10.856;2023-02-18T12:01:45;96564.34;;;23.19
50206;BMP280;36098;48.390;10.856;2023-02-18T12:06:38;96558.03;;;23.34
50206;BMP280;36098;48.390;10.856;2023-02-18T12:09:08;96546.69;;;23.24
50206;BMP280;36098;48.390;10.856;2023-02-18T12:11:39;96530.53;;;23.11
50206;BMP280;36098;48.390;10.856;2023-02-18T12:14:16;96531.56;;;23.05
50206;BMP280;36098;48.390;10.856;2023-02-18T12:16:44;96534.75;;;23.07
50206;BMP280;36098;48.390;10.856;2023-02-18T12:21:47;96529.16;;;22.98
50206;BMP280;36098;48.390;10.856;2023-02-18T12:29:29;96517.34;;;23.06
50206;BMP280;36098;48.390;10.856;2023-02-18T12:34:47;96507.16;;;23.24
50206;BMP280;36098;48.390;10.856;2023-02-18T12:37:39;96505.09;;;23.46
50206;BMP280;36098;48.390;10.856;2023-02-18T12:40:20;96511.16;;;23.51
50206;BMP280;36098;48.390;10.856;2023-02-18T12:42:56;96514.84;;;23.40
50206;BMP280;36098;48.390;10.856;2023-02-18T12:45:30;96510.88;;;23.43
50206;BMP280;36098;48.390;10.856;2023-02-18T12:48:04;96502.19;;;23.47
50206;BMP280;36098;48.390;10.856;2023-02-18T12:50:53;96507.22;;;23.49
50206;BMP280;36098;48.390;10.856;2023-02-18T12:53:25;96503.25;;;23.46
50206;BMP280;36098;48.390;10.856;2023-02-18T12:56:01;96506.41;;;23.43
50206;BMP280;36098;48.390;10.856;2023-02-18T13:09:17;96509.00;;;23.28
50206;BMP280;36098;48.390;10.856;2023-02-18T13:14:19;96494.25;;;23.23
50206;BMP280;36098;48.390;10.856;2023-02-18T13:16:47;96495.81;;;23.19
50206;BMP280;36098;48.390;10.856;2023-02-18T13:21:52;96512.41;;;23.19
50206;BMP280;36098;48.390;10.856;2023-02-18T13:24:26;96497.41;;;23.20
50206;BMP280;36098;48.390;10.856;2023-02-18T13:26:53;96492.63;;;23.17
50206;BMP280;36098;48.390;10.856;2023-02-18T13:29:43;96487.94;;;23.19
50206;BMP280;36098;48.390;10.856;2023-02-18T13:34:54;96484.47;;;23.13
50206;BMP280;36098;48.390;10.856;2023-02-18T13:39:47;96477.63;;;23.12
50206;BMP280;36098;48.390;10.856;2023-02-18T13:47:35;96469.41;;;23.09
50206;BMP280;36098;48.390;10.856;2023-02-18T13:52:38;96490.00;;;23.12
50206;BMP280;36098;48.390;10.856;2023-02-18T13:55:03;96488.94;;;23.13
50206;BMP280;36098;48.390;10.856;2023-02-18T13:57:28;96486.59;;;23.11
50206;BMP280;36098;48.390;10.856;2023-02-18T13:59:58;96484.72;;;23.12
50206;BMP280;36098;48.390;10.856;2023-02-18T14:02:33;96492.63;;;23.12
50206;BMP280;36098;48.390;10.856;2023-02-18T14:17:48;96486.78;;;23.00
50206;BMP280;36098;48.390;10.856;2023-02-18T14:27:36;96485.63;;;22.76
50206;BMP280;36098;48.390;10.856;2023-02-18T14:32:45;96485.06;;;22.69
50206;BMP280;36098;48.390;10.856;2023-02-18T14:43:03;96479.28;;;22.72
50206;BMP280;36098;48.390;10.856;2023-02-18T14:45:32;96483.56;;;22.88
50206;BMP280;36098;48.390;10.856;2023-02-18T14:50:31;96489.34;;;22.80
50206;BMP280;36098;48.390;10.856;2023-02-18T14:52:57;96493.50;;;22.71
50206;BMP280;36098;48.390;10.856;2023-02-18T14:55:25;96496.16;;;22.76
50206;BMP280;36098;48.390;10.856;2023-02-18T14:58:01;96486.97;;;22.83
50206;BMP280;36098;48.390;10.856;2023-02-18T15:00:28;96484.84;;;22.80
50206;BMP280;36098;48.390;10.856;2023-02-18T15:02:56;96481.72;;;22.83
50206;BMP280;36098;48.390;10.856;2023-02-18T15:05:22;96490.19;;;22.90
50206;BMP280;36098;48.390;10.856;2023-02-18T15:07:58;96486.22;;;22.93
50206;BMP280;36098;48.390;10.856;2023-02-18T15:10:34;96466.22;;;22.97
50206;BMP280;36098;48.390;10.856;2023-02-18T15:13:01;96474.41;;;23.00
50206;BMP280;36098;48.390;10.856;2023-02-18T15:15:26;96482.06;;;23.07
50206;BMP280;36098;48.390;10.856;2023-02-18T15:17:52;96477.31;;;23.09
50206;BMP280;36098;48.390;10.856;2023-02-18T15:20:17;96476.50;;;23.03
50206;BMP280;36098;48.390;10.856;2023-02-18T15:22:42;96477.84;;;23.06
50206;BMP280;36098;48.390;10.856;2023-02-18T15:25:10;96481.59;;;23.29
50206;BMP280;36098;48.390;10.856;2023-02-18T15:27:38;96486.63;;;23.46
50206;BMP280;36098;48.390;10.856;2023-02-18T15:32:50;96479.56;;;23.61
50206;BMP280;36098;48.390;10.856;2023-02-18T15:35:18;96472.69;;;23.80
50206;BMP280;36098;48.390;10.856;2023-02-18T15:37:44;96476.91;;;23.46
50206;BMP280;36098;48.390;10.856;2023-02-18T15:40:16;96482.72;;;23.58
50206;BMP280;36098;48.390;10.856;2023-02-18T15:42:42;96474.00;;;23.58
50206;BMP280;36098;48.390;10.856;2023-02-18T15:45:19;96488.53;;;23.85
50206;BMP280;36098;48.390;10.856;2023-02-18T15:47:49;96491.44;;;23.94
50206;BMP280;36098;48.390;10.856;2023-02-18T15:50:19;96485.09;;;24.05
50206;BMP280;36098;48.390;10.856;2023-02-18T15:52:45;96490.13;;;23.96
50206;BMP280;36098;48.390;10.856;2023-02-18T15:55:12;96488.53;;;23.80
50206;BMP280;36098;48.390;10.856;2023-02-18T15:57:39;96501.16;;;23.73
50206;BMP280;36098;48.390;10.856;2023-02-18T16:00:12;96484.84;;;23.91
50206;BMP280;36098;48.390;10.856;2023-02-18T16:02:48;96472.69;;;23.80
50206;BMP280;36098;48.390;10.856;2023-02-18T16:05:13;96478.00;;;24.00
50206;BMP280;36098;48.390;10.856;2023-02-18T16:07:49;96467.41;;;23.75
50206;BMP280;36098;48.390;10.856;2023-02-18T16:10:17;96461.09;;;23.71
50206;BMP280;36098;48.390;10.856;2023-02-18T16:12:44;96478.53;;;23.87
50206;BMP280;36098;48.390;10.856;2023-02-18T16:15:13;96468.72;;;23.58
50206;BMP280;36098;48.390;10.856;2023-02-18T16:17:41;96474.00;;;23.48
50206;BMP280;36098;48.390;10.856;2023-02-18T16:20:15;96477.41;;;23.24